Time;durP1;ratioP1;P1;durP2;ratioP2;P2;SDS_P1;SDS_P2;PMS_P1;PMS_P2;Temp;Humidity;BMP_temperature;BMP_pressure;BME280_temperature;BME280_humidity;BME280_pressure;Samples;Min_cycle;Max_cycle;Signal;HPM_P1;HPM_P2
2024/01/11 00:01:23;;;;;;;54.70;18.63;;;-2.50;47.50;;;;;;5062042;28;47027;-73
2024/01/11 00:03:49;;;;;;;52.73;18.80;;;-2.60;47.40;;;;;;5059629;28;46998;-74
2024/01/11 00:06:14;;;;;;;57.30;18.20;;;-2.60;47.30;;;;;;5061019;28;46305;-75
2024/01/11 00:08:40;;;;;;;49.77;17.63;;;-2.70;47.60;;;;;;5059454;28;46415;-73
2024/01/11 00:11:06;;;;;;;65.00;20.47;;;-2.60;47.40;;;;;;5060490;28;46454;-72
2024/01/11 00:13:31;;;;;;;72.93;19.43;;;-2.50;47.20;;;;;;5059263;28;46499;-72
2024/01/11 00:15:57;;;;;;;97.17;20.63;;;-2.40;47.20;;;;;;5060503;28;46444;-73
2024/01/11 00:18:22;;;;;;;66.90;17.83;;;-2.40;47.10;;;;;;5058317;28;46415;-73
2024/01/11 00:20:48;;;;;;;60.50;17.73;;;-2.50;47.20;;;;;;5057509;28;47118;-73
2024/01/11 00:23:13;;;;;;;61.27;17.87;;;-2.50;47.50;;;;;;5059148;28;46991;-73
2024/01/11 00:25:39;;;;;;;56.53;19.73;;;-2.50;47.30;;;;;;5060538;28;46488;-73
2024/01/11 00:28:05;;;;;;;43.43;15.77;;;-2.40;47.20;;;;;;5061129;28;46415;-74
2024/01/11 00:30:30;;;;;;;71.77;18.33;;;-2.40;47.20;;;;;;5057367;28;46417;-73
2024/01/11 00:32:56;;;;;;;64.73;18.27;;;-2.40;47.40;;;;;;5058388;28;46441;-74
2024/01/11 00:35:21;;;;;;;63.20;18.10;;;-2.40;47.40;;;;;;5043733;28;46507;-72
2024/01/11 00:37:47;;;;;;;55.90;18.50;;;-2.40;47.60;;;;;;5059147;28;46535;-72
2024/01/11 00:40:12;;;;;;;74.70;19.77;;;-2.50;49.10;;;;;;5057484;28;46541;-74
2024/01/11 00:42:38;;;;;;;86.57;19.23;;;-2.50;48.30;;;;;;5060425;28;46483;-73
2024/01/11 00:45:04;;;;;;;84.03;19.03;;;-2.50;48.50;;;;;;5057766;28;46727;-75
2024/01/11 00:47:30;;;;;;;63.95;18.92;;;-2.50;48.50;;;;;;5060849;28;46373;-74
2024/01/11 00:49:56;;;;;;;67.43;19.90;;;-2.60;48.60;;;;;;5059557;28;46810;-74
2024/01/11 00:52:21;;;;;;;64.23;19.97;;;-2.60;48.80;;;;;;5061372;28;48076;-72
2024/01/11 00:54:47;;;;;;;67.60;20.00;;;-2.50;48.80;;;;;;5059456;28;46375;-74
2024/01/11 00:57:12;;;;;;;64.23;19.60;;;-2.60;49.00;;;;;;5060074;28;46549;-73
2024/01/11 00:59:40;;;;;;;63.13;17.63;;;-2.50;49.30;;;;;;5059884;28;46450;-72
2024/01/11 01:02:05;;;;;;;59.22;20.45;;;-2.50;49.00;;;;;;5061069;28;46916;-76
2024/01/11 01:04:31;;;;;;;58.27;20.37;;;-2.40;48.80;;;;;;5059139;28;46476;-72
2024/01/11 01:06:57;;;;;;;68.50;20.33;;;-2.40;48.80;;;;;;5058882;28;46544;-74
2024/01/11 01:09:23;;;;;;;74.57;21.87;;;-2.50;48.80;;;;;;5059983;28;45924;-73
2024/01/11 01:11:48;;;;;;;74.67;18.93;;;-2.60;49.30;;;;;;5058030;28;46937;-74
2024/01/11 01:14:14;;;;;;;65.47;19.70;;;-2.70;49.60;;;;;;5059570;28;46403;-71
2024/01/11 01:16:40;;;;;;;65.73;21.10;;;-2.60;51.00;;;;;;5059553;28;46352;-71
2024/01/11 01:19:05;;;;;;;76.07;20.77;;;-2.50;49.60;;;;;;5058602;28;46507;-70
2024/01/11 01:21:31;;;;;;;69.83;20.57;;;-2.70;49.70;;;;;;5039023;28;49219;-74
2024/01/11 01:23:56;;;;;;;58.60;19.20;;;-2.70;50.30;;;;;;5058997;28;46609;-71
2024/01/11 01:26:22;;;;;;;47.80;17.07;;;-2.70;50.60;;;;;;5040918;28;46499;-73
2024/01/11 01:28:47;;;;;;;59.97;16.87;;;-2.70;50.70;;;;;;5058704;28;46535;-72
2024/01/11 01:31:14;;;;;;;54.67;18.60;;;-2.70;50.60;;;;;;5059542;28;46471;-73
2024/01/11 01:33:40;;;;;;;67.25;19.42;;;-2.60;50.70;;;;;;5058757;28;46344;-73
2024/01/11 01:36:09;;;;;;;103.25;22.30;;;-2.70;50.70;;;;;;5062226;28;46503;-71
2024/01/11 01:38:35;;;;;;;71.28;20.35;;;-2.70;51.10;;;;;;5059336;28;46750;-73
2024/01/11 01:41:00;;;;;;;76.50;21.60;;;-2.70;51.60;;;;;;5059926;28;46321;-72
2024/01/11 01:43:26;;;;;;;48.80;19.27;;;-2.80;51.70;;;;;;5059302;28;46468;-74
2024/01/11 01:45:52;;;;;;;99.37;22.17;;;-2.80;51.90;;;;;;5059806;28;46765;-71
2024/01/11 01:48:17;;;;;;;75.00;18.90;;;-2.90;51.90;;;;;;5059265;28;46758;-72
2024/01/11 01:50:50;;;;;;;72.83;20.03;;;-2.90;52.40;;;;;;5054604;28;46393;-72
2024/01/11 01:53:17;;;;;;;72.78;19.77;;;-2.90;52.00;;;;;;5056305;28;46408;-72
2024/01/11 01:55:43;;;;;;;66.03;20.10;;;-2.80;51.80;;;;;;5055600;28;46524;-73
2024/01/11 01:58:08;;;;;;;109.50;24.87;;;-2.70;51.60;;;;;;5057216;28;46480;-72
2024/01/11 02:00:34;;;;;;;88.53;22.63;;;-2.70;51.20;;;;;;5059026;28;46460;-72
2024/01/11 02:03:00;;;;;;;70.37;23.00;;;-2.90;51.60;;;;;;5057937;28;46385;-74
2024/01/11 02:05:26;;;;;;;70.03;21.93;;;-3.00;51.90;;;;;;5060405;28;46770;-74
2024/01/11 02:07:52;;;;;;;66.80;22.03;;;-3.00;52.40;;;;;;5057664;28;46384;-73
2024/01/11 02:10:18;;;;;;;84.43;20.40;;;-3.00;52.10;;;;;;5057495;28;46223;-72
2024/01/11 02:12:44;;;;;;;51.45;18.65;;;-2.90;51.90;;;;;;5057054;28;46504;-72
2024/01/11 02:15:10;;;;;;;68.50;20.37;;;-3.00;52.10;;;;;;5057820;28;46431;-73
2024/01/11 02:17:36;;;;;;;89.30;21.02;;;-3.10;52.20;;;;;;5060369;28;46376;-72
2024/01/11 02:20:03;;;;;;;133.32;22.50;;;-3.10;52.20;;;;;;5040785;28;48342;-74
2024/01/11 02:22:33;;;;;;;79.78;19.80;;;-3.10;52.20;;;;;;5056135;28;46808;-73
2024/01/11 02:24:59;;;;;;;91.75;23.08;;;-3.10;52.30;;;;;;5058478;28;46397;-72
2024/01/11 02:27:24;;;;;;;72.57;19.03;;;-3.10;52.30;;;;;;5056056;28;46515;-74
2024/01/11 02:29:50;;;;;;;52.10;17.30;;;-3.10;52.30;;;;;;5059266;28;47187;-72
2024/01/11 02:32:16;;;;;;;53.67;18.10;;;-3.00;51.90;;;;;;5060450;28;46497;-72
2024/01/11 02:34:42;;;;;;;53.70;18.77;;;-3.00;51.80;;;;;;5059196;28;46460;-72
2024/01/11 02:37:08;;;;;;;69.53;18.52;;;-2.90;51.60;;;;;;5057547;28;46551;-73
2024/01/11 02:39:33;;;;;;;74.67;19.40;;;-2.90;51.40;;;;;;5040960;28;46441;-72
2024/01/11 02:42:00;;;;;;;51.88;18.33;;;-2.90;51.60;;;;;;5059685;28;46385;-72
2024/01/11 02:44:27;;;;;;;127.60;20.00;;;-3.00;51.80;;;;;;5059284;28;46712;-73
2024/01/11 02:46:53;;;;;;;76.17;19.40;;;-2.90;51.90;;;;;;5058984;28;46500;-74
2024/01/11 02:49:18;;;;;;;60.13;19.70;;;-2.90;51.50;;;;;;5058189;28;47062;-74
2024/01/11 02:51:44;;;;;;;46.50;17.37;;;-2.90;51.80;;;;;;5060100;28;45931;-73
2024/01/11 02:54:10;;;;;;;59.20;18.33;;;-2.80;51.50;;;;;;5057356;28;46386;-74
2024/01/11 02:56:35;;;;;;;80.27;18.87;;;-2.80;51.40;;;;;;5058643;28;45911;-76
2024/01/11 02:59:01;;;;;;;95.37;20.80;;;-2.80;51.30;;;;;;5055189;28;46673;-74
2024/01/11 03:01:27;;;;;;;71.50;17.97;;;-2.90;51.40;;;;;;5059062;28;46401;-74
2024/01/11 03:03:53;;;;;;;63.63;20.00;;;-2.90;51.60;;;;;;5058222;28;46350;-73
2024/01/11 03:06:21;;;;;;;58.90;19.90;;;-2.90;51.60;;;;;;5057945;28;46693;-75
2024/01/11 03:08:50;;;;;;;57.35;19.58;;;-2.80;51.60;;;;;;5054305;28;46276;-74
2024/01/11 03:11:18;;;;;;;73.88;20.70;;;-2.80;51.60;;;;;;5057309;28;46337;-73
2024/01/11 03:13:44;;;;;;;70.10;20.38;;;-2.90;51.60;;;;;;5057002;28;46415;-74
2024/01/11 03:16:10;;;;;;;56.50;19.87;;;-2.80;51.50;;;;;;5060196;28;46530;-73
2024/01/11 03:18:35;;;;;;;63.37;21.27;;;-2.70;51.30;;;;;;5059347;28;46435;-72
2024/01/11 03:21:01;;;;;;;110.13;24.50;;;-2.70;51.10;;;;;;5058809;28;46497;-72
2024/01/11 03:23:26;;;;;;;71.80;21.37;;;-2.70;51.00;;;;;;5056689;28;46392;-72
2024/01/11 03:25:52;;;;;;;75.03;21.40;;;-2.70;50.90;;;;;;5059902;28;46470;-72
2024/01/11 03:28:17;;;;;;;78.30;23.10;;;-2.60;51.00;;;;;;5057158;28;46946;-73
2024/01/11 03:30:43;;;;;;;66.50;20.80;;;-2.60;50.60;;;;;;5056949;28;45872;-73
2024/01/11 03:33:09;;;;;;;65.13;21.40;;;-2.60;50.60;;;;;;5056170;28;46559;-75
2024/01/11 03:35:34;;;;;;;75.20;21.37;;;-2.50;50.80;;;;;;5056575;28;46668;-72
2024/01/11 03:38:00;;;;;;;68.90;21.90;;;-2.60;50.50;;;;;;5057560;28;46320;-74
2024/01/11 03:40:26;;;;;;;78.60;19.60;;;-2.60;51.70;;;;;;5060210;28;46461;-74
2024/01/11 03:42:52;;;;;;;90.18;21.58;;;-2.50;50.50;;;;;;5058661;28;46761;-74
2024/01/11 03:45:21;;;;;;;60.17;19.93;;;-2.60;50.80;;;;;;5058211;28;46437;-75
2024/01/11 03:47:47;;;;;;;85.30;22.13;;;-2.60;51.00;;;;;;5056170;28;46464;-74
2024/01/11 03:50:12;;;;;;;68.83;21.50;;;-2.60;51.00;;;;;;5057621;28;45896;-76
2024/01/11 03:52:39;;;;;;;60.17;20.50;;;-2.70;51.30;;;;;;5057240;28;46385;-75
2024/01/11 03:55:06;;;;;;;67.30;21.52;;;-2.70;51.70;;;;;;5057745;28;46431;-73
2024/01/11 03:57:31;;;;;;;66.93;20.75;;;-2.70;51.80;;;;;;5059312;28;46326;-74
2024/01/11 03:59:58;;;;;;;52.23;19.00;;;-2.70;51.60;;;;;;5061811;28;45786;-73
2024/01/11 04:02:24;;;;;;;93.53;22.75;;;-2.70;52.70;;;;;;5062309;28;46281;-73
2024/01/11 04:04:50;;;;;;;61.53;19.83;;;-2.70;51.60;;;;;;5060326;28;46416;-74
2024/01/11 04:07:16;;;;;;;51.53;19.57;;;-2.80;51.70;;;;;;5062928;28;46738;-74
2024/01/11 04:09:42;;;;;;;71.07;21.92;;;-2.80;51.80;;;;;;5061648;28;46673;-73
2024/01/11 04:12:08;;;;;;;85.27;19.80;;;-2.80;52.00;;;;;;5042805;28;46765;-74
2024/01/11 04:14:37;;;;;;;61.90;19.77;;;-2.80;52.10;;;;;;5058271;28;46483;-74
2024/01/11 04:17:03;;;;;;;90.63;20.67;;;-2.70;51.80;;;;;;5059009;28;46448;-74
2024/01/11 04:19:28;;;;;;;104.90;25.42;;;-2.60;51.70;;;;;;5059416;28;46432;-74
2024/01/11 04:21:54;;;;;;;72.30;20.13;;;-2.70;51.40;;;;;;5061839;28;46329;-73
2024/01/11 04:24:19;;;;;;;62.87;20.30;;;-2.70;51.60;;;;;;5059964;28;46520;-74
2024/01/11 04:26:45;;;;;;;100.70;23.40;;;-2.70;51.60;;;;;;5060097;28;46489;-74
2024/01/11 04:29:11;;;;;;;124.47;22.23;;;-2.60;51.60;;;;;;5060358;28;46420;-74
2024/01/11 04:31:36;;;;;;;93.60;21.13;;;-2.60;51.70;;;;;;5060262;28;46447;-75
2024/01/11 04:34:02;;;;;;;71.93;20.20;;;-2.70;52.00;;;;;;5060784;28;46329;-73
2024/01/11 04:36:27;;;;;;;60.53;22.00;;;-2.70;51.90;;;;;;5059955;28;47069;-75
2024/01/11 04:38:53;;;;;;;62.60;20.63;;;-2.60;51.60;;;;;;5058618;28;46461;-74
2024/01/11 04:41:18;;;;;;;53.67;18.77;;;-2.70;51.50;;;;;;5058896;28;46432;-74
2024/01/11 04:43:45;;;;;;;55.03;18.90;;;-2.80;51.60;;;;;;5043368;28;46713;-74
2024/01/11 04:46:19;;;;;;;86.57;20.85;;;-2.80;51.60;;;;;;5060419;28;47937;-74
2024/01/11 04:48:46;;;;;;;91.28;18.52;;;-2.80;51.60;;;;;;5060070;28;46382;-73
2024/01/11 04:51:15;;;;;;;53.17;17.75;;;-3.00;52.30;;;;;;5062155;28;46537;-73
2024/01/11 04:53:43;;;;;;;120.60;22.05;;;-3.10;53.30;;;;;;5061410;28;46499;-74
2024/01/11 04:56:10;;;;;;;78.35;17.92;;;-3.30;54.20;;;;;;5059230;28;47088;-73
2024/01/11 04:58:37;;;;;;;74.43;18.40;;;-3.40;54.00;;;;;;5058737;28;46490;-75
2024/01/11 05:01:04;;;;;;;146.40;22.55;;;-3.50;54.90;;;;;;5059548;28;46416;-73
2024/01/11 05:03:30;;;;;;;95.43;19.33;;;-3.60;55.50;;;;;;5059115;28;46408;-75
2024/01/11 05:05:56;;;;;;;183.70;26.10;;;-3.60;55.60;;;;;;5058538;28;46397;-75
2024/01/11 05:08:22;;;;;;;59.47;18.43;;;-3.60;55.10;;;;;;5059188;28;46482;-77
2024/01/11 05:10:47;;;;;;;70.07;20.67;;;-3.40;56.00;;;;;;5060549;28;46491;-73
2024/01/11 05:13:13;;;;;;;97.00;22.30;;;-3.30;54.10;;;;;;5060077;28;46483;-73
2024/01/11 05:15:39;;;;;;;67.17;19.60;;;-3.20;53.50;;;;;;5059694;28;47189;-74
2024/01/11 05:18:04;;;;;;;62.03;21.90;;;-3.20;53.30;;;;;;5058974;28;46449;-76
2024/01/11 05:20:30;;;;;;;74.70;24.50;;;-3.20;53.10;;;;;;5058144;28;46389;-75
2024/01/11 05:22:55;;;;;;;86.27;24.53;;;-3.10;53.00;;;;;;5058876;28;46556;-74
2024/01/11 05:25:21;;;;;;;87.90;23.17;;;-3.20;53.20;;;;;;5058362;28;46496;-74
2024/01/11 05:27:47;;;;;;;75.00;22.97;;;-3.20;53.70;;;;;;5059038;28;46454;-73
2024/01/11 05:30:13;;;;;;;77.13;22.52;;;-3.10;53.60;;;;;;5058805;28;46507;-75
2024/01/11 05:32:38;;;;;;;75.30;24.13;;;-3.10;53.30;;;;;;5060268;28;46595;-74
2024/01/11 05:35:04;;;;;;;80.87;26.90;;;-3.00;53.30;;;;;;5060139;28;46424;-74
2024/01/11 05:37:30;;;;;;;77.80;26.53;;;-3.00;53.30;;;;;;5059940;28;46416;-76
2024/01/11 05:39:57;;;;;;;122.80;28.03;;;-3.20;53.70;;;;;;5058556;28;46456;-75
2024/01/11 05:42:23;;;;;;;78.60;26.25;;;-3.30;54.10;;;;;;5059558;28;46339;-75
2024/01/11 05:44:48;;;;;;;65.10;22.83;;;-3.40;54.50;;;;;;5059031;28;46259;-74
2024/01/11 05:47:14;;;;;;;80.17;27.33;;;-3.60;55.10;;;;;;5061136;28;45837;-74
2024/01/11 05:49:40;;;;;;;77.93;24.30;;;-3.60;55.40;;;;;;5061046;28;46544;-74
2024/01/11 05:52:06;;;;;;;70.65;25.67;;;-3.50;55.20;;;;;;5041203;28;46470;-74
2024/01/11 05:54:31;;;;;;;101.87;27.50;;;-3.50;54.80;;;;;;5057267;28;46625;-74
2024/01/11 05:56:58;;;;;;;90.73;26.50;;;-3.50;54.70;;;;;;5059145;28;46830;-72
2024/01/11 05:59:24;;;;;;;77.35;25.60;;;-3.50;54.60;;;;;;5059072;28;46481;-73
2024/01/11 06:01:50;;;;;;;88.20;25.17;;;-3.60;54.80;;;;;;5057027;28;46588;-74
2024/01/11 06:04:16;;;;;;;86.13;28.00;;;-3.40;54.40;;;;;;5058399;28;46594;-74
2024/01/11 06:06:42;;;;;;;92.72;27.95;;;-3.30;54.10;;;;;;5055500;28;46415;-74
2024/01/11 06:09:08;;;;;;;82.43;27.97;;;-3.20;53.80;;;;;;5060214;28;46478;-74
2024/01/11 06:11:33;;;;;;;72.53;25.35;;;-3.20;53.50;;;;;;5060716;28;45863;-74
2024/01/11 06:14:00;;;;;;;67.73;25.30;;;-3.20;53.40;;;;;;5059920;28;46746;-73
2024/01/11 06:16:26;;;;;;;77.65;26.42;;;-3.20;53.40;;;;;;5058713;28;46505;-74
2024/01/11 06:18:51;;;;;;;56.57;25.17;;;-3.10;53.30;;;;;;5056254;28;46772;-72
2024/01/11 06:21:17;;;;;;;60.47;24.30;;;-3.10;53.30;;;;;;5057025;28;46328;-72
2024/01/11 06:23:45;;;;;;;68.87;24.27;;;-3.00;53.40;;;;;;5054998;28;47810;-72
2024/01/11 06:26:11;;;;;;;58.05;24.27;;;-3.10;53.10;;;;;;5057654;28;46704;-73
2024/01/11 06:28:37;;;;;;;63.77;24.77;;;-3.10;54.20;;;;;;5058318;28;46541;-74
2024/01/11 06:31:03;;;;;;;64.13;23.87;;;-3.10;53.20;;;;;;5059316;28;46855;-74
2024/01/11 06:33:29;;;;;;;67.88;25.92;;;-3.10;53.30;;;;;;5055047;28;46827;-74
2024/01/11 06:35:55;;;;;;;59.00;22.58;;;-3.10;53.30;;;;;;5058724;28;46427;-72
2024/01/11 06:38:21;;;;;;;85.90;25.35;;;-3.10;53.50;;;;;;5056268;28;46436;-73
2024/01/11 06:40:48;;;;;;;66.03;23.40;;;-3.20;54.10;;;;;;5057921;28;46431;-73
2024/01/11 06:43:14;;;;;;;113.07;25.42;;;-3.40;54.40;;;;;;5055282;28;46434;-72
2024/01/11 06:45:40;;;;;;;56.22;22.75;;;-3.50;54.90;;;;;;5058380;28;46448;-72
2024/01/11 06:48:06;;;;;;;56.27;22.60;;;-3.50;54.90;;;;;;5058605;28;45932;-74
2024/01/11 06:50:31;;;;;;;59.50;21.37;;;-3.40;54.40;;;;;;5040743;28;46646;-75
2024/01/11 06:52:57;;;;;;;54.33;20.40;;;-3.40;54.00;;;;;;5057795;28;46018;-74
2024/01/11 06:55:23;;;;;;;59.50;21.97;;;-3.40;54.00;;;;;;5055927;28;46737;-73
2024/01/11 06:57:48;;;;;;;61.50;23.57;;;-3.40;54.00;;;;;;5054606;28;45914;-75
2024/01/11 07:00:14;;;;;;;57.63;20.93;;;-3.40;54.00;;;;;;5059114;28;46510;-75
2024/01/11 07:02:43;;;;;;;63.83;24.10;;;-3.30;54.10;;;;;;5056945;28;46843;-73
2024/01/11 07:05:08;;;;;;;52.05;19.50;;;-3.40;54.00;;;;;;5056826;28;46419;-74
2024/01/11 07:07:34;;;;;;;62.47;23.47;;;-3.30;53.80;;;;;;5057971;28;46435;-75
2024/01/11 07:09:59;;;;;;;58.03;21.60;;;-3.30;53.70;;;;;;5054613;28;46430;-74
2024/01/11 07:12:28;;;;;;;55.17;21.70;;;-3.30;53.40;;;;;;5061195;28;46730;-73
2024/01/11 07:14:54;;;;;;;66.28;23.58;;;-3.10;53.00;;;;;;5061246;28;46713;-72
2024/01/11 07:17:19;;;;;;;68.37;23.97;;;-3.10;52.40;;;;;;5061420;28;45899;-71
2024/01/11 07:19:45;;;;;;;65.50;25.10;;;-3.00;51.90;;;;;;5061809;28;46443;-71
2024/01/11 07:22:10;;;;;;;54.37;23.33;;;-2.90;51.60;;;;;;5061145;28;46444;-73
2024/01/11 07:24:37;;;;;;;66.17;24.17;;;-2.80;51.10;;;;;;5061523;28;46349;-72
2024/01/11 07:27:06;;;;;;;64.60;25.52;;;-2.80;50.90;;;;;;5061854;28;46361;-73
2024/01/11 07:29:33;;;;;;;67.35;23.52;;;-2.90;51.10;;;;;;5062711;28;46420;-72
2024/01/11 07:31:59;;;;;;;67.65;24.35;;;-2.90;51.50;;;;;;5064833;28;46435;-73
2024/01/11 07:34:25;;;;;;;62.80;21.92;;;-3.00;51.80;;;;;;5064630;28;45968;-73
2024/01/11 07:36:52;;;;;;;60.70;22.92;;;-2.90;51.70;;;;;;5064677;28;46471;-72
2024/01/11 07:39:18;;;;;;;50.70;22.75;;;-2.70;51.50;;;;;;5064884;28;46341;-73
2024/01/11 07:41:43;;;;;;;90.97;38.73;;;-2.70;51.00;;;;;;5064773;28;46399;-73
2024/01/11 07:44:09;;;;;;;137.10;58.27;;;-2.70;50.80;;;;;;5063296;28;46380;-73
2024/01/11 07:46:55;;;;;;;58.43;22.70;;;-2.70;50.90;;;;;;5045059;28;46367;-73
2024/01/11 07:49:21;;;;;;;58.67;22.27;;;-2.70;50.60;;;;;;5020859;28;46431;-73
2024/01/11 07:51:47;;;;;;;62.27;24.27;;;-2.70;50.50;;;;;;5061021;28;46758;-73
2024/01/11 07:54:12;;;;;;;53.00;23.10;;;-2.70;50.70;;;;;;5063913;28;46440;-70
2024/01/11 07:56:38;;;;;;;54.70;21.43;;;-2.80;51.10;;;;;;5063652;28;45768;-72
2024/01/11 07:59:04;;;;;;;57.03;20.57;;;-2.90;51.80;;;;;;5068642;28;46383;-73
2024/01/11 08:01:30;;;;;;;50.45;21.15;;;-2.90;51.50;;;;;;5067727;28;47282;-72
2024/01/11 08:03:55;;;;;;;56.77;22.70;;;-2.80;51.20;;;;;;5064546;28;46120;-72
2024/01/11 08:06:21;;;;;;;58.37;22.07;;;-2.70;50.80;;;;;;5064646;28;46340;-73
2024/01/11 08:08:51;;;;;;;55.20;21.80;;;-2.50;50.30;;;;;;5064362;28;46558;-72
2024/01/11 08:11:17;;;;;;;57.13;20.70;;;-2.50;50.00;;;;;;5064655;28;47121;-72
2024/01/11 08:13:43;;;;;;;65.90;20.60;;;-2.40;50.10;;;;;;5064678;28;46472;-70
2024/01/11 08:16:09;;;;;;;54.10;20.27;;;-2.50;50.10;;;;;;5069675;28;46407;-72
2024/01/11 08:18:35;;;;;;;60.47;20.80;;;-2.50;50.40;;;;;;5062505;28;46369;-73
2024/01/11 08:21:01;;;;;;;48.53;19.87;;;-2.40;50.20;;;;;;5081409;28;46399;-72
2024/01/11 08:23:26;;;;;;;53.20;20.43;;;-2.30;50.00;;;;;;5067880;28;46484;-72
2024/01/11 08:25:55;;;;;;;52.87;21.57;;;-2.20;50.70;;;;;;5055906;28;46520;-72
2024/01/11 08:28:20;;;;;;;57.95;19.63;;;-2.30;50.00;;;;;;5050845;28;46555;-71
2024/01/11 08:30:46;;;;;;;47.50;19.70;;;-2.40;50.50;;;;;;5026630;28;48400;-72
2024/01/11 08:33:12;;;;;;;50.53;20.33;;;-2.50;50.70;;;;;;5038875;28;46501;-66
2024/01/11 08:35:40;;;;;;;52.25;18.10;;;-2.40;50.70;;;;;;5058216;28;46474;-67
2024/01/11 08:38:06;;;;;;;41.42;18.10;;;-2.30;50.00;;;;;;5038326;28;46624;-67
2024/01/11 08:40:31;;;;;;;46.13;18.33;;;-2.20;49.70;;;;;;5056656;28;47059;-69
2024/01/11 08:42:58;;;;;;;41.90;17.10;;;-2.00;49.10;;;;;;5053059;28;46515;-68
2024/01/11 08:45:23;;;;;;;47.38;18.98;;;-1.80;49.50;;;;;;5059658;28;46422;-67
2024/01/11 08:47:49;;;;;;;43.90;17.97;;;-1.80;47.50;;;;;;5055369;28;46787;-67
2024/01/11 08:50:15;;;;;;;47.35;18.83;;;-1.80;47.70;;;;;;5059299;28;46518;-67
2024/01/11 08:52:42;;;;;;;68.22;20.92;;;-1.90;48.00;;;;;;5059224;28;46461;-68
2024/01/11 08:55:08;;;;;;;61.60;22.35;;;-1.90;48.50;;;;;;5057738;28;46727;-68
2024/01/11 08:57:35;;;;;;;60.33;20.93;;;-2.10;49.40;;;;;;5058459;28;46360;-69
2024/01/11 09:00:02;;;;;;;57.83;22.85;;;-2.10;49.40;;;;;;5056400;28;46361;-69
2024/01/11 09:02:28;;;;;;;60.58;21.50;;;-2.00;49.20;;;;;;5055181;28;46457;-68
2024/01/11 09:04:53;;;;;;;59.00;19.33;;;-1.90;48.40;;;;;;5053417;28;46296;-69
2024/01/11 09:07:19;;;;;;;54.87;21.10;;;-1.80;48.00;;;;;;5056513;28;46378;-67
2024/01/11 09:09:45;;;;;;;58.15;23.45;;;-2.00;48.50;;;;;;5057111;28;46425;-67
2024/01/11 09:12:11;;;;;;;58.70;23.25;;;-2.10;49.20;;;;;;5058344;28;46530;-69
2024/01/11 09:14:37;;;;;;;49.20;20.53;;;-2.40;49.50;;;;;;5054460;28;46469;-70
2024/01/11 09:17:06;;;;;;;56.03;21.23;;;-2.50;50.40;;;;;;5057222;28;45841;-66
2024/01/11 09:19:34;;;;;;;49.30;20.48;;;-2.70;50.90;;;;;;5059963;28;46391;-67
2024/01/11 09:22:00;;;;;;;48.28;20.90;;;-2.70;50.70;;;;;;5057356;28;46412;-69
2024/01/11 09:24:26;;;;;;;57.53;21.17;;;-2.70;50.70;;;;;;5058806;28;46386;-69
2024/01/11 09:26:51;;;;;;;48.60;20.43;;;-2.70;50.50;;;;;;5058619;28;46511;-67
2024/01/11 09:29:17;;;;;;;43.10;19.60;;;-2.40;50.00;;;;;;5058971;28;47182;-69
2024/01/11 09:31:43;;;;;;;48.20;20.80;;;-2.20;48.80;;;;;;5055226;28;46698;-69
2024/01/11 09:34:08;;;;;;;62.50;23.23;;;-2.00;48.20;;;;;;5038691;28;46535;-69
2024/01/11 09:36:34;;;;;;;80.27;35.93;;;-1.80;47.70;;;;;;5067174;22;46501;-69
2024/01/11 09:39:00;;;;;;;56.22;24.48;;;-1.50;47.50;;;;;;5048883;28;47094;-69
2024/01/11 09:41:26;;;;;;;57.07;24.90;;;-1.40;46.60;;;;;;5044530;28;46323;-68
2024/01/11 09:43:55;;;;;;;55.30;23.58;;;-1.20;45.60;;;;;;5048466;28;46368;-70
2024/01/11 09:46:22;;;;;;;53.90;23.23;;;-1.30;45.70;;;;;;5046198;28;46440;-70
2024/01/11 09:48:49;;;;;;;63.13;26.23;;;-1.40;46.30;;;;;;5051558;28;46202;-72
2024/01/11 09:51:14;;;;;;;69.25;24.80;;;-1.30;46.50;;;;;;5049850;28;46419;-69
2024/01/11 09:53:42;;;;;;;63.80;25.70;;;-1.10;46.00;;;;;;5051862;28;46492;-69
2024/01/11 09:56:09;;;;;;;62.90;26.33;;;-1.00;45.40;;;;;;5048463;28;46344;-71
2024/01/11 09:58:38;;;;;;;62.70;24.35;;;-0.80;45.00;;;;;;5047923;28;47350;-70
2024/01/11 10:01:09;;;;;;;61.28;24.30;;;-1.00;45.40;;;;;;5050451;28;46912;-71
2024/01/11 10:03:34;;;;;;;68.60;26.98;;;-0.90;45.20;;;;;;5050396;28;46474;-71
2024/01/11 10:06:02;;;;;;;63.83;25.47;;;-0.90;45.00;;;;;;5048896;28;46636;-70
2024/01/11 10:08:29;;;;;;;66.38;24.27;;;-0.80;44.60;;;;;;5049655;28;47082;-71
2024/01/11 10:10:55;;;;;;;64.05;24.60;;;-0.60;44.20;;;;;;5047092;28;46675;-68
2024/01/11 10:13:30;;;;;;;69.83;30.30;;;-0.40;43.70;;;;;;5046973;28;46515;-69
2024/01/11 10:16:16;;;;;;;58.53;25.10;;;-0.30;43.80;;;;;;5040222;28;46485;-68
2024/01/11 10:18:42;;;;;;;61.45;23.77;;;-0.20;42.40;;;;;;5048743;28;46419;-69
2024/01/11 10:21:09;;;;;;;68.03;23.87;;;-0.10;42.10;;;;;;5047703;28;46372;-68
2024/01/11 10:23:35;;;;;;;54.95;23.85;;;0.00;41.60;;;;;;5047103;28;46489;-70
2024/01/11 10:26:02;;;;;;;57.00;23.52;;;0.00;41.10;;;;;;5048713;28;46425;-71
2024/01/11 10:28:28;;;;;;;62.08;24.25;;;0.10;40.70;;;;;;5048179;28;46495;-70
2024/01/11 10:30:54;;;;;;;60.13;25.45;;;0.10;40.50;;;;;;5045847;28;46547;-69
2024/01/11 10:33:22;;;;;;;57.20;22.95;;;0.10;40.60;;;;;;5048320;28;46405;-69
2024/01/11 10:35:49;;;;;;;55.42;22.92;;;0.10;41.20;;;;;;5046172;28;46428;-69
2024/01/11 10:38:16;;;;;;;63.47;23.48;;;0.10;41.40;;;;;;5048529;28;46377;-69
2024/01/11 10:40:42;;;;;;;56.33;23.83;;;0.00;41.90;;;;;;5047033;28;46653;-70
2024/01/11 10:43:11;;;;;;;58.67;24.45;;;-0.10;42.40;;;;;;5048779;28;46556;-68
2024/01/11 10:45:38;;;;;;;65.40;26.70;;;-0.10;42.70;;;;;;5047391;28;46571;-68
2024/01/11 10:48:13;;;;;;;51.17;21.75;;;0.10;42.10;;;;;;5046417;28;46381;-70
2024/01/11 10:50:42;;;;;;;50.88;22.88;;;0.10;41.30;;;;;;5052143;28;46715;-68
2024/01/11 10:53:08;;;;;;;53.05;23.67;;;0.20;42.10;;;;;;5049899;28;45885;-69
2024/01/11 10:55:34;;;;;;;49.03;22.17;;;0.30;40.40;;;;;;5047270;28;46549;-71
2024/01/11 10:58:01;;;;;;;47.25;20.67;;;0.00;40.70;;;;;;5044626;28;46658;-70
2024/01/11 11:00:28;;;;;;;53.75;22.45;;;-0.40;41.60;;;;;;5048959;28;45848;-68
2024/01/11 11:02:55;;;;;;;52.13;24.02;;;-0.50;41.20;;;;;;5044771;28;46646;-70
2024/01/11 11:05:22;;;;;;;47.63;20.95;;;-0.50;41.40;;;;;;5046131;28;46692;-70
2024/01/11 11:07:50;;;;;;;50.58;22.02;;;-0.30;41.40;;;;;;5050129;28;46400;-69
2024/01/11 11:10:18;;;;;;;57.00;24.30;;;-0.10;41.10;;;;;;5048522;28;46682;-69
2024/01/11 11:12:45;;;;;;;54.13;22.70;;;0.10;40.60;;;;;;5047758;28;46369;-70
2024/01/11 11:15:12;;;;;;;54.17;23.25;;;0.40;40.50;;;;;;5046310;28;46448;-69
2024/01/11 11:17:39;;;;;;;54.10;23.27;;;0.50;39.90;;;;;;5049181;28;47023;-69
2024/01/11 11:20:08;;;;;;;49.47;23.80;;;0.60;38.90;;;;;;5048683;28;46227;-69
2024/01/11 11:22:36;;;;;;;57.30;24.50;;;0.60;37.80;;;;;;5049286;28;45870;-70
2024/01/11 11:25:09;;;;;;;50.20;23.65;;;0.70;37.60;;;;;;5049104;28;45878;-68
2024/01/11 11:27:38;;;;;;;53.47;22.67;;;0.70;38.00;;;;;;5050191;28;46396;-68
2024/01/11 11:30:05;;;;;;;62.75;25.35;;;0.70;38.20;;;;;;5048671;28;46527;-68
2024/01/11 11:32:38;;;;;;;55.70;24.88;;;0.80;38.10;;;;;;5045816;28;45949;-69
2024/01/11 11:35:05;;;;;;;56.35;24.73;;;0.90;38.00;;;;;;5048798;28;46408;-68
2024/01/11 11:37:34;;;;;;;54.88;24.05;;;0.90;37.50;;;;;;5029926;28;47056;-68
2024/01/11 11:39:59;;;;;;;73.13;27.10;;;1.00;37.50;;;;;;5047167;28;46407;-68
2024/01/11 11:42:25;;;;;;;61.17;27.90;;;1.00;37.70;;;;;;5032925;28;46349;-67
2024/01/11 11:44:51;;;;;;;56.20;25.40;;;0.90;38.50;;;;;;5047547;28;46751;-67
2024/01/11 11:47:21;;;;;;;62.65;25.63;;;1.00;39.50;;;;;;5045161;28;47351;-68
2024/01/11 11:50:09;;;;;;;67.22;26.83;;;1.00;37.70;;;;;;5044846;28;46456;-70
2024/01/11 11:52:38;;;;;;;63.97;25.63;;;0.70;38.40;;;;;;5048495;28;46542;-68
2024/01/11 11:55:06;;;;;;;57.10;24.15;;;0.30;39.60;;;;;;5046928;28;46413;-69
2024/01/11 11:57:33;;;;;;;70.45;24.33;;;0.10;40.00;;;;;;5048154;28;46406;-71
2024/01/11 11:59:59;;;;;;;52.25;23.15;;;0.10;40.30;;;;;;5047457;28;46474;-69
2024/01/11 12:02:26;;;;;;;54.63;23.30;;;0.00;40.80;;;;;;5046805;28;46580;-68
2024/01/11 12:04:53;;;;;;;50.83;21.67;;;-0.30;40.60;;;;;;5044360;28;46159;-68
2024/01/11 12:07:20;;;;;;;57.67;22.60;;;-0.30;40.30;;;;;;5043724;28;47974;-68
2024/01/11 12:09:46;;;;;;;51.50;22.13;;;-0.40;40.80;;;;;;5048065;28;46375;-68
2024/01/11 12:12:13;;;;;;;55.38;22.77;;;-0.60;41.00;;;;;;5046699;28;46461;-68
2024/01/11 12:14:39;;;;;;;51.80;22.35;;;-0.80;40.70;;;;;;5049993;28;46432;-69
2024/01/11 12:17:06;;;;;;;51.53;23.55;;;-0.70;40.60;;;;;;5053653;28;47368;-70
2024/01/11 12:19:32;;;;;;;60.55;23.17;;;-0.50;39.90;;;;;;5050629;28;46496;-68
2024/01/11 12:21:58;;;;;;;41.28;20.15;;;-0.40;39.40;;;;;;5055579;28;46844;-68
2024/01/11 12:24:23;;;;;;;57.70;23.67;;;-0.10;38.50;;;;;;5048990;28;46431;-68